Time;durP1;ratioP1;P1;durP2;ratioP2;P2;SDS_P1;SDS_P2;PMS_P1;PMS_P2;Temp;Humidity;BMP_temperature;BMP_pressure;BME280_temperature;BME280_humidity;BME280_pressure;Samples;Min_cycle;Max_cycle;Signal;HPM_P1;HPM_P2
2023/03/21 00:02:16;;;;;;;15.27;7.38;;;;;;;;;;5008671;28;20048;-67
2023/03/21 00:04:45;;;;;;;16.63;7.25;;;;;;;;;;5031128;28;20059;-66
2023/03/21 00:07:15;;;;;;;16.23;8.00;;;;;;;;;;5016529;28;20155;-66
2023/03/21 00:09:41;;;;;;;14.25;6.78;;;;;;;;;;5005642;28;20056;-65
2023/03/21 00:12:09;;;;;;;16.48;7.15;;;;;;;;;;4997905;28;20143;-66
2023/03/21 00:14:36;;;;;;;15.32;6.85;;;;;;;;;;4980342;28;20040;-66
2023/03/21 00:17:03;;;;;;;14.23;7.63;;;;;;;;;;4967332;28;20076;-66
2023/03/21 00:19:30;;;;;;;14.43;7.18;;;;;;;;;;4966000;28;20049;-66
2023/03/21 00:21:58;;;;;;;12.65;6.85;;;;;;;;;;5015808;28;20048;-66
2023/03/21 00:24:26;;;;;;;13.35;7.03;;;;;;;;;;5020741;28;20103;-67
2023/03/21 00:26:52;;;;;;;14.00;6.95;;;;;;;;;;4996924;28;20053;-66
2023/03/21 00:29:19;;;;;;;14.70;7.50;;;;;;;;;;5018703;28;20297;-66
2023/03/21 00:31:45;;;;;;;15.52;8.07;;;;;;;;;;5003603;28;20156;-67
2023/03/21 00:34:11;;;;;;;15.32;7.70;;;;;;;;;;5018674;28;20125;-65
2023/03/21 00:36:38;;;;;;;15.45;6.97;;;;;;;;;;5019259;28;20122;-67
2023/03/21 00:39:06;;;;;;;14.43;7.72;;;;;;;;;;5016760;28;20069;-64
2023/03/21 00:41:33;;;;;;;17.20;7.17;;;;;;;;;;5017392;28;20299;-66
2023/03/21 00:43:59;;;;;;;15.50;8.13;;;;;;;;;;5017266;28;20402;-65
2023/03/21 00:46:25;;;;;;;16.08;7.85;;;;;;;;;;5006388;28;20112;-66
2023/03/21 00:48:52;;;;;;;17.38;8.68;;;;;;;;;;5018833;28;20181;-65
2023/03/21 00:51:24;;;;;;;16.40;8.38;;;;;;;;;;5024140;28;20059;-66
2023/03/21 00:53:51;;;;;;;16.92;7.85;;;;;;;;;;5039308;28;20108;-66
2023/03/21 00:56:20;;;;;;;16.58;7.82;;;;;;;;;;4991905;28;20115;-65
2023/03/21 00:58:46;;;;;;;;;;;;;;;;;;5017541;28;20056;-65
2023/03/21 01:01:12;;;;;;;13.77;6.85;;;;;;;;;;5028976;28;19924;-65
2023/03/21 01:03:49;;;;;;;16.30;8.05;;;;;;;;;;5037816;28;20152;-66
2023/03/21 01:06:18;;;;;;;16.50;8.13;;;;;;;;;;5018338;28;20049;-66
2023/03/21 01:08:45;;;;;;;16.40;8.05;;;;;;;;;;5022347;28;21173;-65
2023/03/21 01:11:12;;;;;;;13.52;7.53;;;;;;;;;;5034298;28;20048;-66
2023/03/21 01:13:40;;;;;;;14.50;7.10;;;;;;;;;;5029982;28;20352;-66
2023/03/21 01:16:07;;;;;;;15.43;7.63;;;;;;;;;;5034534;28;20060;-66
2023/03/21 01:18:34;;;;;;;14.45;7.57;;;;;;;;;;5016576;28;20098;-65
2023/03/21 01:21:02;;;;;;;14.38;7.38;;;;;;;;;;5036564;28;20105;-65
2023/03/21 01:23:29;;;;;;;20.67;7.95;;;;;;;;;;5032797;28;20056;-65
2023/03/21 01:25:56;;;;;;;14.70;7.30;;;;;;;;;;5055391;28;20076;-65
2023/03/21 01:28:22;;;;;;;17.85;8.18;;;;;;;;;;5038373;28;20063;-66
2023/03/21 01:30:51;;;;;;;16.08;7.47;;;;;;;;;;5021951;28;20063;-66
2023/03/21 01:33:18;;;;;;;17.45;7.65;;;;;;;;;;5025383;28;20147;-65
2023/03/21 01:35:45;;;;;;;15.55;7.57;;;;;;;;;;5033187;28;20049;-66
2023/03/21 01:38:11;;;;;;;16.50;7.22;;;;;;;;;;5015434;28;20052;-65
2023/03/21 01:40:38;;;;;;;15.15;7.45;;;;;;;;;;5030012;28;20312;-65
2023/03/21 01:43:12;;;;;;;14.55;7.40;;;;;;;;;;5028837;28;20057;-65
2023/03/21 01:45:57;;;;;;;16.90;8.18;;;;;;;;;;5006603;28;20118;-66
2023/03/21 01:48:26;;;;;;;17.48;8.38;;;;;;;;;;5026409;28;20053;-65
2023/03/21 01:50:53;;;;;;;15.52;7.75;;;;;;;;;;5035849;28;20135;-67
2023/03/21 01:53:20;;;;;;;13.27;7.60;;;;;;;;;;5019403;28;20107;-66
2023/03/21 01:55:48;;;;;;;16.13;7.53;;;;;;;;;;5057925;28;20062;-65
2023/03/21 01:58:17;;;;;;;20.30;7.55;;;;;;;;;;5047333;28;20056;-66
2023/03/21 02:00:44;;;;;;;16.70;7.97;;;;;;;;;;5034674;28;21738;-66
2023/03/21 02:03:15;;;;;;;15.55;7.40;;;;;;;;;;5015705;28;20071;-66
2023/03/21 02:05:49;;;;;;;13.93;7.32;;;;;;;;;;5050173;28;20056;-66
2023/03/21 02:08:16;;;;;;;15.05;7.70;;;;;;;;;;5028131;28;20106;-67
2023/03/21 02:10:45;;;;;;;17.33;8.18;;;;;;;;;;5011228;28;20068;-66
2023/03/21 02:13:11;;;;;;;;;;;;;;;;;;5031159;28;20057;-66
2023/03/21 02:15:38;;;;;;;13.20;6.57;;;;;;;;;;5015998;28;19924;-66
2023/03/21 02:18:08;;;;;;;14.32;7.75;;;;;;;;;;5015908;28;20144;-66
2023/03/21 02:20:53;;;;;;;15.43;7.10;;;;;;;;;;5020650;28;20048;-67
2023/03/21 02:23:42;;;;;;;13.18;7.22;;;;;;;;;;5036567;28;20072;-66
2023/03/21 02:26:20;;;;;;;15.32;7.60;;;;;;;;;;5014782;28;20087;-66
2023/03/21 02:28:48;;;;;;;15.40;7.78;;;;;;;;;;5026921;28;20064;-66
2023/03/21 02:31:25;;;;;;;14.98;7.75;;;;;;;;;;5016301;28;20140;-65
2023/03/21 02:34:10;;;;;;;15.50;7.80;;;;;;;;;;5035022;28;20064;-66
2023/03/21 02:36:56;;;;;;;15.35;7.57;;;;;;;;;;5022111;28;20059;-66
2023/03/21 02:39:25;;;;;;;13.45;7.05;;;;;;;;;;5034801;28;20072;-66
2023/03/21 02:41:54;;;;;;;14.18;7.57;;;;;;;;;;5044619;28;20139;-66
2023/03/21 02:44:23;;;;;;;14.02;7.20;;;;;;;;;;5034389;28;20095;-66
2023/03/21 02:46:51;;;;;;;13.40;7.38;;;;;;;;;;5028175;28;20126;-67
2023/03/21 02:49:22;;;;;;;15.07;7.20;;;;;;;;;;5037421;28;20070;-65
2023/03/21 02:51:50;;;;;;;14.38;7.40;;;;;;;;;;5033255;28;20071;-66
2023/03/21 02:54:19;;;;;;;13.52;6.78;;;;;;;;;;5035487;28;20114;-67
2023/03/21 02:56:47;;;;;;;14.82;7.80;;;;;;;;;;5024535;28;20190;-66
2023/03/21 02:59:15;;;;;;;16.67;7.60;;;;;;;;;;5058864;28;20113;-66
2023/03/21 03:01:41;;;;;;;14.82;7.50;;;;;;;;;;5036950;28;20088;-66
2023/03/21 03:04:17;;;;;;;15.52;6.95;;;;;;;;;;4995166;28;20111;-66
2023/03/21 03:06:49;;;;;;;15.18;7.18;;;;;;;;;;5006169;28;20056;-65
2023/03/21 03:09:24;;;;;;;14.85;7.40;;;;;;;;;;5044274;28;20072;-66
2023/03/21 03:11:54;;;;;;;15.95;7.22;;;;;;;;;;5036535;28;20060;-65
2023/03/21 03:14:31;;;;;;;14.88;7.53;;;;;;;;;;5038708;28;20131;-65
2023/03/21 03:17:03;;;;;;;16.38;7.70;;;;;;;;;;5022167;28;20057;-66
2023/03/21 03:19:31;;;;;;;15.70;7.97;;;;;;;;;;5020621;28;20125;-66
2023/03/21 03:21:59;;;;;;;15.98;7.88;;;;;;;;;;5042748;28;20053;-67
2023/03/21 03:24:29;;;;;;;14.30;7.35;;;;;;;;;;5019236;28;20141;-66
2023/03/21 03:26:59;;;;;;;14.15;7.68;;;;;;;;;;5013979;28;20143;-66
2023/03/21 03:29:27;;;;;;;14.73;7.53;;;;;;;;;;5050588;28;20056;-66
2023/03/21 03:31:56;;;;;;;14.23;7.57;;;;;;;;;;5017312;28;20060;-66
2023/03/21 03:34:25;;;;;;;13.82;7.40;;;;;;;;;;5008117;28;20390;-65
2023/03/21 03:36:54;;;;;;;13.45;6.97;;;;;;;;;;5032102;28;20088;-67
2023/03/21 03:39:22;;;;;;;17.17;7.80;;;;;;;;;;5034969;28;20163;-66
2023/03/21 03:41:53;;;;;;;14.13;7.33;;;;;;;;;;5039956;28;20056;-66
2023/03/21 03:44:19;;;;;;;18.15;7.80;;;;;;;;;;5033755;28;20581;-65
2023/03/21 03:46:48;;;;;;;17.33;7.78;;;;;;;;;;5057856;28;20079;-66
2023/03/21 03:49:17;;;;;;;13.52;7.53;;;;;;;;;;5011869;28;20056;-66
2023/03/21 03:51:49;;;;;;;15.00;7.53;;;;;;;;;;5036995;28;20154;-66
2023/03/21 03:54:17;;;;;;;14.23;7.65;;;;;;;;;;5030349;28;20135;-67
2023/03/21 03:56:44;;;;;;;14.70;7.15;;;;;;;;;;5056959;28;20049;-66
2023/03/21 03:59:13;;;;;;;14.63;7.57;;;;;;;;;;5046670;28;20355;-66
2023/03/21 04:01:40;;;;;;;13.40;7.00;;;;;;;;;;5057124;28;20132;-65
2023/03/21 04:04:07;;;;;;;15.68;7.03;;;;;;;;;;5042210;28;20083;-66
2023/03/21 04:06:33;;;;;;;16.83;7.47;;;;;;;;;;5019689;28;20064;-66
2023/03/21 04:09:00;;;;;;;14.65;6.90;;;;;;;;;;5013838;28;20143;-65
2023/03/21 04:11:26;;;;;;;13.15;6.75;;;;;;;;;;5038003;28;20072;-66
2023/03/21 04:13:53;;;;;;;13.55;7.20;;;;;;;;;;5028836;28;20118;-66
2023/03/21 04:16:22;;;;;;;13.88;7.00;;;;;;;;;;5038065;28;20049;-66
2023/03/21 04:18:48;;;;;;;16.20;7.22;;;;;;;;;;5016121;28;20126;-65
2023/03/21 04:21:15;;;;;;;16.00;7.15;;;;;;;;;;5012554;28;20506;-66
2023/03/21 04:23:42;;;;;;;12.80;7.07;;;;;;;;;;5030529;28;20130;-67
2023/03/21 04:26:09;;;;;;;13.10;7.10;;;;;;;;;;5019993;28;20111;-66
2023/03/21 04:28:39;;;;;;;12.73;6.88;;;;;;;;;;5019268;28;20108;-66
2023/03/21 04:31:05;;;;;;;14.00;6.40;;;;;;;;;;5028217;28;20056;-66
2023/03/21 04:33:37;;;;;;;10.60;6.45;;;;;;;;;;5038909;28;20048;-66
2023/03/21 04:36:05;;;;;;;13.35;6.07;;;;;;;;;;5027442;28;20077;-66
2023/03/21 04:38:32;;;;;;;13.07;6.72;;;;;;;;;;5035698;28;20057;-66
2023/03/21 04:40:59;;;;;;;12.70;6.68;;;;;;;;;;5014193;28;20069;-65
2023/03/21 04:43:27;;;;;;;11.95;6.28;;;;;;;;;;5037153;28;20069;-66
2023/03/21 04:45:53;;;;;;;12.50;6.07;;;;;;;;;;5013453;28;20052;-67
2023/03/21 04:48:23;;;;;;;16.02;6.70;;;;;;;;;;5037472;28;20117;-66
2023/03/21 04:50:52;;;;;;;11.23;6.13;;;;;;;;;;5031278;28;20117;-67
2023/03/21 04:53:18;;;;;;;12.98;6.25;;;;;;;;;;5039576;28;20061;-66
2023/03/21 04:55:45;;;;;;;13.20;6.18;;;;;;;;;;4989509;28;20072;-66
2023/03/21 04:58:11;;;;;;;14.43;6.00;;;;;;;;;;5035966;28;20263;-66
2023/03/21 05:00:38;;;;;;;14.65;6.20;;;;;;;;;;5015070;28;20131;-65
2023/03/21 05:03:07;;;;;;;12.77;6.15;;;;;;;;;;5010874;28;20116;-66
2023/03/21 05:05:35;;;;;;;14.85;6.60;;;;;;;;;;5020931;28;20080;-66
2023/03/21 05:08:03;;;;;;;13.70;6.22;;;;;;;;;;5030502;28;20053;-66
2023/03/21 05:10:29;;;;;;;10.93;5.75;;;;;;;;;;5014292;28;20408;-66
2023/03/21 05:13:01;;;;;;;12.18;5.93;;;;;;;;;;5032033;28;20080;-70
2023/03/21 05:15:27;;;;;;;13.20;6.63;;;;;;;;;;5048269;28;20060;-65
2023/03/21 05:17:54;;;;;;;11.23;5.55;;;;;;;;;;5012903;28;20131;-65
2023/03/21 05:20:20;;;;;;;11.15;5.78;;;;;;;;;;5017979;28;20075;-66
2023/03/21 05:22:50;;;;;;;12.13;5.93;;;;;;;;;;5011164;28;20116;-66
2023/03/21 05:25:33;;;;;;;11.23;5.45;;;;;;;;;;4990205;28;20075;-66
2023/03/21 05:28:00;;;;;;;11.40;5.90;;;;;;;;;;5029514;28;20122;-65
2023/03/21 05:30:27;;;;;;;9.68;5.00;;;;;;;;;;5027069;28;20059;-65
2023/03/21 05:32:54;;;;;;;12.80;6.00;;;;;;;;;;5014251;28;20059;-67
2023/03/21 05:35:20;;;;;;;11.77;5.78;;;;;;;;;;4982031;28;20139;-67
2023/03/21 05:37:47;;;;;;;13.57;6.28;;;;;;;;;;5023610;28;20088;-65
2023/03/21 05:40:14;;;;;;;11.15;5.40;;;;;;;;;;5016931;28;20099;-66
2023/03/21 05:42:42;;;;;;;14.65;5.78;;;;;;;;;;5024179;28;20048;-67
2023/03/21 05:45:10;;;;;;;11.53;5.17;;;;;;;;;;5009913;28;20052;-66
2023/03/21 05:47:37;;;;;;;14.50;5.97;;;;;;;;;;5031817;28;20403;-66
2023/03/21 05:50:03;;;;;;;12.02;5.80;;;;;;;;;;5018900;28;20057;-66
2023/03/21 05:52:30;;;;;;;11.05;5.28;;;;;;;;;;5032205;28;20084;-66
2023/03/21 05:54:56;;;;;;;10.85;5.53;;;;;;;;;;5007836;28;20194;-67
2023/03/21 05:57:23;;;;;;;11.85;5.60;;;;;;;;;;5013778;28;20048;-65
2023/03/21 05:59:51;;;;;;;13.05;5.78;;;;;;;;;;5016183;28;20155;-66
2023/03/21 06:02:20;;;;;;;11.35;5.60;;;;;;;;;;5019323;28;20113;-66
2023/03/21 06:04:47;;;;;;;12.32;4.95;;;;;;;;;;5010184;28;20135;-66
2023/03/21 06:07:13;;;;;;;12.52;5.35;;;;;;;;;;5026661;28;20045;-67
2023/03/21 06:09:40;;;;;;;10.43;4.95;;;;;;;;;;5012258;28;20065;-66
2023/03/21 06:12:07;;;;;;;12.63;4.93;;;;;;;;;;5017994;28;20060;-67
2023/03/21 06:14:33;;;;;;;13.50;5.20;;;;;;;;;;5009119;28;20061;-66
2023/03/21 06:17:01;;;;;;;11.48;5.30;;;;;;;;;;5010218;28;20182;-66
2023/03/21 06:19:27;;;;;;;11.40;5.10;;;;;;;;;;5011423;28;20067;-67
2023/03/21 06:21:56;;;;;;;9.25;4.70;;;;;;;;;;5017668;28;20118;-66
2023/03/21 06:24:22;;;;;;;9.52;4.88;;;;;;;;;;5010712;28;20064;-67
2023/03/21 06:26:49;;;;;;;9.35;4.53;;;;;;;;;;5016828;28;20061;-65
2023/03/21 06:29:15;;;;;;;10.35;4.85;;;;;;;;;;4991519;28;20056;-65
2023/03/21 06:31:45;;;;;;;11.23;4.63;;;;;;;;;;5008584;28;20122;-65
2023/03/21 06:34:13;;;;;;;12.40;5.25;;;;;;;;;;5024451;28;20049;-65
2023/03/21 06:36:43;;;;;;;10.93;4.65;;;;;;;;;;5011650;28;20061;-66
2023/03/21 06:39:10;;;;;;;8.43;3.95;;;;;;;;;;4995203;28;20484;-65
2023/03/21 06:41:36;;;;;;;10.05;5.05;;;;;;;;;;5031991;28;20059;-66
2023/03/21 06:44:05;;;;;;;9.27;4.57;;;;;;;;;;5021692;28;20107;-66
2023/03/21 06:46:32;;;;;;;11.55;5.10;;;;;;;;;;5002909;28;20061;-67
2023/03/21 06:48:58;;;;;;;9.65;4.60;;;;;;;;;;5014971;28;20049;-65
2023/03/21 06:51:31;;;;;;;10.02;4.82;;;;;;;;;;5031385;28;20065;-66
2023/03/21 06:54:16;;;;;;;;;;;;;;;;;;;;;
2023/03/21 06:56:43;;;;;;;11.32;4.50;;;;;;;;;;4933515;28;20061;-66
2023/03/21 06:59:12;;;;;;;11.32;4.72;;;;;;;;;;4993144;28;20265;-66
2023/03/21 07:01:39;;;;;;;10.52;4.55;;;;;;;;;;4991306;28;20080;-66
2023/03/21 07:04:11;;;;;;;9.77;4.70;;;;;;;;;;4983808;28;20065;-66
2023/03/21 07:06:39;;;;;;;11.43;4.38;;;;;;;;;;4977380;28;20534;-66
2023/03/21 07:09:09;;;;;;;11.18;4.78;;;;;;;;;;5014215;28;20049;-66
2023/03/21 07:11:35;;;;;;;13.55;4.93;;;;;;;;;;5012669;28;20136;-66
2023/03/21 07:14:02;;;;;;;8.70;4.80;;;;;;;;;;5001121;28;20136;-67
2023/03/21 07:16:29;;;;;;;11.80;4.70;;;;;;;;;;4995605;28;20053;-67
2023/03/21 07:18:57;;;;;;;8.75;4.22;;;;;;;;;;4975855;28;20101;-67
2023/03/21 07:21:24;;;;;;;;;;;;;;;;;;4992186;28;20090;-65
2023/03/21 07:23:52;;;;;;;9.48;4.45;;;;;;;;;;4996989;28;20148;-66
2023/03/21 07:26:23;;;;;;;9.98;4.50;;;;;;;;;;4952964;28;20058;-66
2023/03/21 07:28:56;;;;;;;9.05;3.97;;;;;;;;;;4971956;28;20054;-67
2023/03/21 07:31:25;;;;;;;9.15;4.15;;;;;;;;;;4990648;28;20057;-67
2023/03/21 07:33:51;;;;;;;;;;;;;;;;;;5016293;28;20056;-66
2023/03/21 07:36:35;;;;;;;11.25;4.63;;;;;;;;;;4917097;28;20157;-68
2023/03/21 07:39:06;;;;;;;9.88;4.28;;;;;;;;;;4936525;28;20049;-67
2023/03/21 07:41:33;;;;;;;10.80;4.30;;;;;;;;;;4970721;28;20232;-67
2023/03/21 07:43:59;;;;;;;10.77;4.07;;;;;;;;;;4989945;28;20058;-66
2023/03/21 07:46:35;;;;;;;12.18;4.40;;;;;;;;;;4930328;28;20064;-68
2023/03/21 07:49:01;;;;;;;11.38;4.28;;;;;;;;;;4960265;28;20054;-68
2023/03/21 07:51:34;;;;;;;10.02;4.05;;;;;;;;;;4992264;28;20076;-67
2023/03/21 07:54:18;;;;;;;9.30;4.10;;;;;;;;;;4998915;28;20076;-68
2023/03/21 07:56:45;;;;;;;11.18;4.50;;;;;;;;;;4980495;28;20140;-67
2023/03/21 07:59:12;;;;;;;11.30;4.23;;;;;;;;;;5010653;28;20053;-67
2023/03/21 08:01:40;;;;;;;11.63;4.60;;;;;;;;;;5040397;28;20325;-68
2023/03/21 08:04:07;;;;;;;9.10;4.20;;;;;;;;;;5020510;28;20053;-68
2023/03/21 08:06:36;;;;;;;11.57;4.30;;;;;;;;;;4994569;28;20090;-68
2023/03/21 08:09:03;;;;;;;9.60;4.28;;;;;;;;;;5001509;28;20480;-68
2023/03/21 08:11:32;;;;;;;10.75;4.28;;;;;;;;;;5021181;28;20057;-70
2023/03/21 08:13:58;;;;;;;9.40;3.92;;;;;;;;;;5026767;28;20061;-67
2023/03/21 08:16:25;;;;;;;9.88;4.10;;;;;;;;;;5029894;28;20350;-67
2023/03/21 08:19:02;;;;;;;8.40;4.07;;;;;;;;;;5003394;28;20060;-67
2023/03/21 08:21:28;;;;;;;15.05;4.28;;;;;;;;;;5005242;28;20151;-68
2023/03/21 08:23:58;;;;;;;10.63;4.10;;;;;;;;;;5002476;28;20135;-67
2023/03/21 08:26:25;;;;;;;10.90;4.47;;;;;;;;;;4957080;28;20068;-67
2023/03/21 08:29:06;;;;;;;10.43;4.05;;;;;;;;;;4990761;28;20049;-67
2023/03/21 08:31:33;;;;;;;6.88;3.58;;;;;;;;;;4998938;28;20049;-67
2023/03/21 08:34:01;;;;;;;9.43;3.83;;;;;;;;;;4978014;28;20049;-66
2023/03/21 08:36:30;;;;;;;9.57;4.00;;;;;;;;;;4982224;28;20053;-66
2023/03/21 08:39:04;;;;;;;11.00;4.07;;;;;;;;;;4980863;28;20058;-66
2023/03/21 08:41:30;;;;;;;11.05;3.88;;;;;;;;;;5013852;28;20053;-69
2023/03/21 08:43:57;;;;;;;7.88;3.55;;;;;;;;;;4997207;28;20056;-67
2023/03/21 08:46:25;;;;;;;9.65;4.15;;;;;;;;;;5005465;28;20052;-67
2023/03/21 08:48:54;;;;;;;8.60;4.20;;;;;;;;;;5035603;28;20154;-67
2023/03/21 08:51:21;;;;;;;10.68;4.07;;;;;;;;;;5013857;28;20053;-66
2023/03/21 08:53:49;;;;;;;10.68;4.03;;;;;;;;;;5014457;28;20083;-67
2023/03/21 08:56:16;;;;;;;8.68;4.00;;;;;;;;;;4970674;28;20145;-67
2023/03/21 08:58:44;;;;;;;10.25;3.97;;;;;;;;;;4997707;28;20124;-67
2023/03/21 09:01:14;;;;;;;10.15;3.83;;;;;;;;;;4999944;28;20329;-67
2023/03/21 09:03:42;;;;;;;9.55;3.75;;;;;;;;;;5014061;28;20068;-67
2023/03/21 09:06:12;;;;;;;8.18;3.53;;;;;;;;;;4990066;28;20091;-67
2023/03/21 09:08:40;;;;;;;10.75;3.95;;;;;;;;;;5053157;28;20061;-67
2023/03/21 09:11:16;;;;;;;9.75;3.90;;;;;;;;;;5012443;28;20120;-66
2023/03/21 09:13:42;;;;;;;8.52;3.60;;;;;;;;;;4989541;28;20065;-67
2023/03/21 09:16:09;;;;;;;9.10;3.70;;;;;;;;;;4943737;28;20064;-67
2023/03/21 09:18:49;;;;;;;9.93;3.40;;;;;;;;;;5006614;28;20045;-67
2023/03/21 09:21:19;;;;;;;9.77;3.67;;;;;;;;;;5003908;28;20131;-66
2023/03/21 09:23:51;;;;;;;8.40;3.75;;;;;;;;;;5030894;28;20231;-66
2023/03/21 09:26:23;;;;;;;8.77;4.00;;;;;;;;;;4965471;28;20064;-66
2023/03/21 09:28:53;;;;;;;9.07;3.88;;;;;;;;;;4995189;28;20053;-67
2023/03/21 09:31:21;;;;;;;10.77;3.67;;;;;;;;;;4997536;28;20426;-66
2023/03/21 09:33:51;;;;;;;7.20;3.13;;;;;;;;;;4978881;28;20137;-65
2023/03/21 09:36:23;;;;;;;8.73;3.63;;;;;;;;;;4983014;28;20060;-67
2023/03/21 09:38:56;;;;;;;8.13;3.50;;;;;;;;;;5015004;28;20044;-68
2023/03/21 09:41:42;;;;;;;10.85;3.63;;;;;;;;;;5044353;28;20057;-66
2023/03/21 09:44:28;;;;;;;8.30;3.50;;;;;;;;;;5000528;28;20057;-66
2023/03/21 09:46:57;;;;;;;9.85;3.95;;;;;;;;;;4920094;28;20057;-66
2023/03/21 09:49:29;;;;;;;9.25;4.28;;;;;;;;;;5047404;28;20143;-66
2023/03/21 09:52:02;;;;;;;9.40;3.45;;;;;;;;;;5040486;28;20067;-66
2023/03/21 09:54:33;;;;;;;6.85;3.03;;;;;;;;;;4992154;28;20069;-66
2023/03/21 09:57:14;;;;;;;9.05;3.72;;;;;;;;;;4956688;28;20131;-66
2023/03/21 09:59:41;;;;;;;10.05;3.42;;;;;;;;;;5016279;28;20055;-66
2023/03/21 10:02:21;;;;;;;9.02;3.80;;;;;;;;;;5005871;28;20124;-66
2023/03/21 10:04:52;;;;;;;9.05;3.67;;;;;;;;;;5007707;28;20056;-67
2023/03/21 10:07:29;;;;;;;12.85;4.22;;;;;;;;;;4991473;28;20047;-67
2023/03/21 10:09:59;;;;;;;10.65;3.40;;;;;;;;;;5020434;28;20064;-65
2023/03/21 10:12:29;;;;;;;9.23;3.83;;;;;;;;;;5014666;28;20078;-67
2023/03/21 10:14:57;;;;;;;14.55;3.90;;;;;;;;;;4992280;28;20072;-66
2023/03/21 10:17:26;;;;;;;7.22;3.42;;;;;;;;;;4985134;28;20063;-67
2023/03/21 10:20:02;;;;;;;6.45;3.17;;;;;;;;;;5005485;28;20049;-66
2023/03/21 10:22:30;;;;;;;7.82;3.60;;;;;;;;;;5029833;28;20052;-65
2023/03/21 10:24:59;;;;;;;14.75;4.15;;;;;;;;;;5002635;28;20061;-66
2023/03/21 10:27:25;;;;;;;9.30;3.50;;;;;;;;;;5002891;28;20068;-65
2023/03/21 10:29:56;;;;;;;8.57;3.60;;;;;;;;;;5008910;28;20052;-66
2023/03/21 10:32:25;;;;;;;8.90;3.72;;;;;;;;;;5029948;28;20056;-66
2023/03/21 10:34:55;;;;;;;9.50;3.55;;;;;;;;;;5019612;28;20090;-65
2023/03/21 10:37:22;;;;;;;9.07;3.80;;;;;;;;;;4997673;28;20056;-66
2023/03/21 10:39:51;;;;;;;10.27;4.15;;;;;;;;;;5021532;28;20049;-66
2023/03/21 10:42:21;;;;;;;9.38;4.03;;;;;;;;;;5018310;28;20045;-66
2023/03/21 10:44:48;;;;;;;7.28;3.42;;;;;;;;;;4992859;28;20049;-65
2023/03/21 10:47:19;;;;;;;7.93;3.60;;;;;;;;;;4966530;28;20324;-66
2023/03/21 10:49:49;;;;;;;15.43;4.07;;;;;;;;;;4997724;28;20284;-66
2023/03/21 10:52:21;;;;;;;9.38;3.67;;;;;;;;;;4987359;28;20057;-64
2023/03/21 10:54:48;;;;;;;8.77;3.50;;;;;;;;;;4979713;28;20077;-66
2023/03/21 10:57:24;;;;;;;9.02;3.78;;;;;;;;;;4970528;28;21570;-66
2023/03/21 10:59:53;;;;;;;11.98;3.85;;;;;;;;;;4995074;28;20060;-66
2023/03/21 11:02:25;;;;;;;9.43;3.85;;;;;;;;;;4991099;28;20108;-66
2023/03/21 11:04:57;;;;;;;7.32;3.35;;;;;;;;;;4952839;28;20097;-65
2023/03/21 11:07:29;;;;;;;10.10;3.80;;;;;;;;;;4970074;28;20049;-66
2023/03/21 11:09:58;;;;;;;11.32;3.70;;;;;;;;;;4980056;28;20080;-65
2023/03/21 11:12:36;;;;;;;8.40;3.60;;;;;;;;;;5000940;28;20123;-65
2023/03/21 11:15:14;;;;;;;9.50;3.60;;;;;;;;;;4968992;28;20053;-66
2023/03/21 11:17:41;;;;;;;9.23;3.80;;;;;;;;;;4960137;28;20177;-65
2023/03/21 11:20:13;;;;;;;9.43;3.67;;;;;;;;;;5005267;28;20080;-66
2023/03/21 11:22:41;;;;;;;8.85;3.67;;;;;;;;;;4970968;28;20070;-66
2023/03/21 11:29:06;;;;;;;;;;;;;;;;;;;;;
2023/03/21 11:31:39;;;;;;;9.18;3.80;;;;;;;;;;4989353;28;20057;-67
2023/03/21 11:34:06;;;;;;;12.20;3.70;;;;;;;;;;4910831;28;20058;-66
2023/03/21 11:36:57;;;;;;;10.40;3.67;;;;;;;;;;4929937;28;20053;-66
2023/03/21 11:39:39;;;;;;;9.85;3.97;;;;;;;;;;4989476;28;20309;-66
2023/03/21 11:45:31;;;;;;;10.52;3.45;;;;;;;;;;4975286;28;20042;-66
2023/03/21 11:48:03;;;;;;;10.48;3.60;;;;;;;;;;4889037;28;20062;-66
2023/03/21 11:50:34;;;;;;;6.95;3.13;;;;;;;;;;4951266;28;20042;-67
2023/03/21 11:53:16;;;;;;;8.57;3.60;;;;;;;;;;4955989;28;20062;-67
2023/03/21 11:55:49;;;;;;;7.13;3.03;;;;;;;;;;4970380;28;20090;-66
2023/03/21 11:58:21;;;;;;;10.02;3.63;;;;;;;;;;4907517;28;20059;-67
2023/03/21 12:00:56;;;;;;;10.10;3.45;;;;;;;;;;4887466;29;20051;-67
2023/03/21 12:03:42;;;;;;;11.45;3.90;;;;;;;;;;4902329;28;20055;-67
2023/03/21 12:08:47;;;;;;;10.23;3.40;;;;;;;;;;4853118;28;20051;-67
2023/03/21 12:11:19;;;;;;;6.28;3.03;;;;;;;;;;4937019;28;20120;-66
2023/03/21 12:14:03;;;;;;;10.48;3.03;;;;;;;;;;4948278;28;20065;-66
2023/03/21 12:16:40;;;;;;;6.22;3.33;;;;;;;;;;4998807;28;20056;-66
2023/03/21 12:19:21;;;;;;;11.02;3.60;;;;;;;;;;4999352;28;20056;-68
2023/03/21 12:21:53;;;;;;;10.48;4.00;;;;;;;;;;5012977;28;20095;-66
2023/03/21 12:24:22;;;;;;;7.60;3.15;;;;;;;;;;5032106;28;20065;-67
2023/03/21 12:26:56;;;;;;;7.53;3.33;;;;;;;;;;4998203;28;20125;-66
2023/03/21 12:29:39;;;;;;;8.35;3.45;;;;;;;;;;5011742;28;20053;-65
2023/03/21 12:32:13;;;;;;;8.38;3.28;;;;;;;;;;5036699;28;20053;-66
2023/03/21 12:34:56;;;;;;;7.43;3.17;;;;;;;;;;5015289;28;20055;-67
2023/03/21 12:37:26;;;;;;;8.27;3.67;;;;;;;;;;4997643;28;20052;-67
2023/03/21 12:39:56;;;;;;;9.75;3.47;;;;;;;;;;5016281;28;20057;-66
2023/03/21 12:42:41;;;;;;;;;;;;;;;;;;;;;
2023/03/21 12:45:13;;;;;;;9.05;3.60;;;;;;;;;;5001429;28;20080;-67
2023/03/21 12:47:51;;;;;;;9.23;3.40;;;;;;;;;;4984643;28;20048;-66
2023/03/21 12:50:21;;;;;;;8.32;3.47;;;;;;;;;;5001554;28;20056;-67
2023/03/21 12:55:34;;;;;;;7.68;3.33;;;;;;;;;;4975411;28;20068;-66
2023/03/21 12:58:08;;;;;;;9.85;3.67;;;;;;;;;;4976642;28;20049;-65
2023/03/21 13:00:36;;;;;;;11.75;3.65;;;;;;;;;;4983140;28;20093;-66
2023/03/21 13:03:06;;;;;;;11.60;3.80;;;;;;;;;;5000568;28;20083;-67
2023/03/21 13:05:34;;;;;;;9.85;3.55;;;;;;;;;;4995963;28;20116;-66
2023/03/21 13:08:05;;;;;;;8.98;3.70;;;;;;;;;;5008035;28;20045;-67
2023/03/21 13:10:31;;;;;;;;;;;;;;;;;;5003107;28;20138;-66
2023/03/21 13:13:03;;;;;;;8.65;3.55;;;;;;;;;;5004957;28;20047;-67
2023/03/21 13:15:37;;;;;;;11.80;3.58;;;;;;;;;;4990834;28;20056;-66
2023/03/21 13:18:13;;;;;;;9.10;3.65;;;;;;;;;;4998681;28;20049;-66
2023/03/21 13:20:42;;;;;;;11.38;2.90;;;;;;;;;;5012742;28;20096;-66
2023/03/21 13:23:10;;;;;;;8.25;3.40;;;;;;;;;;5022932;28;20080;-66
2023/03/21 13:25:41;;;;;;;14.10;4.33;;;;;;;;;;4995037;28;20065;-66
2023/03/21 13:28:16;;;;;;;9.55;3.60;;;;;;;;;;4991126;28;20049;-65
2023/03/21 13:30:45;;;;;;;8.35;3.67;;;;;;;;;;4986825;28;20064;-66
2023/03/21 13:33:22;;;;;;;7.85;3.45;;;;;;;;;;4974396;28;20071;-66
2023/03/21 13:35:55;;;;;;;11.95;3.95;;;;;;;;;;4993714;28;20078;-66
2023/03/21 13:38:23;;;;;;;8.63;3.70;;;;;;;;;;4997556;28;20050;-67
2023/03/21 13:40:52;;;;;;;9.60;4.07;;;;;;;;;;4997619;28;20197;-66
2023/03/21 13:43:33;;;;;;;10.23;3.80;;;;;;;;;;5030862;28;20057;-65
2023/03/21 13:46:05;;;;;;;9.60;3.80;;;;;;;;;;5014134;28;20087;-65
2023/03/21 13:48:41;;;;;;;9.10;3.60;;;;;;;;;;5015506;28;20067;-66
2023/03/21 13:51:07;;;;;;;9.15;3.65;;;;;;;;;;5001948;28;20060;-66
2023/03/21 13:53:36;;;;;;;10.32;3.60;;;;;;;;;;5022795;28;20068;-66
2023/03/21 13:56:02;;;;;;;;;;;;;;;;;;4995806;28;20052;-67
2023/03/21 13:58:32;;;;;;;9.25;3.50;;;;;;;;;;5017656;28;20027;-67
2023/03/21 14:01:11;;;;;;;9.32;3.53;;;;;;;;;;5002930;28;20055;-66
2023/03/21 14:03:40;;;;;;;8.65;3.63;;;;;;;;;;4999243;28;20053;-65
2023/03/21 14:06:08;;;;;;;12.77;4.07;;;;;;;;;;5023659;28;20079;-66
2023/03/21 14:08:39;;;;;;;7.78;3.67;;;;;;;;;;4999106;28;20069;-67
2023/03/21 14:11:10;;;;;;;8.00;3.33;;;;;;;;;;5015953;28;20048;-66
2023/03/21 14:13:37;;;;;;;10.70;4.45;;;;;;;;;;5028003;28;20040;-66
2023/03/21 14:16:08;;;;;;;18.65;4.38;;;;;;;;;;5035119;28;20064;-65
2023/03/21 14:18:48;;;;;;;9.65;4.18;;;;;;;;;;5012724;28;20060;-66
2023/03/21 14:21:16;;;;;;;11.00;4.20;;;;;;;;;;5015110;28;20207;-66
2023/03/21 14:23:43;;;;;;;7.78;3.83;;;;;;;;;;5024556;28;20053;-65
2023/03/21 14:26:12;;;;;;;11.45;4.55;;;;;;;;;;5034993;28;20124;-66
2023/03/21 14:28:41;;;;;;;10.23;4.07;;;;;;;;;;5014128;28;20056;-65
2023/03/21 14:31:14;;;;;;;11.50;4.15;;;;;;;;;;5030682;28;20068;-66
2023/03/21 14:33:46;;;;;;;7.82;3.88;;;;;;;;;;5020563;28;20062;-67
2023/03/21 14:36:14;;;;;;;7.55;3.38;;;;;;;;;;5022076;28;20064;-65
2023/03/21 14:38:44;;;;;;;7.27;3.80;;;;;;;;;;4927821;28;20066;-65
2023/03/21 14:41:37;;;;;;;10.35;4.03;;;;;;;;;;4984076;28;20383;-65
2023/03/21 14:44:12;;;;;;;8.23;4.30;;;;;;;;;;4998584;28;20053;-66
2023/03/21 14:46:38;;;;;;;9.00;3.78;;;;;;;;;;4997333;28;20151;-65
2023/03/21 14:49:13;;;;;;;7.32;3.88;;;;;;;;;;4960562;28;20049;-67
2023/03/21 14:51:41;;;;;;;10.20;4.20;;;;;;;;;;5000394;28;20058;-65
2023/03/21 14:54:09;;;;;;;7.93;3.90;;;;;;;;;;4996335;28;20057;-65
2023/03/21 14:56:37;;;;;;;7.93;4.00;;;;;;;;;;4985919;28;20307;-66
2023/03/21 14:59:04;;;;;;;8.85;4.18;;;;;;;;;;4951617;28;20064;-66
2023/03/21 15:01:31;;;;;;;10.68;4.32;;;;;;;;;;4990466;28;20061;-66
2023/03/21 15:03:59;;;;;;;9.23;4.45;;;;;;;;;;5002966;28;20046;-67
2023/03/21 15:06:27;;;;;;;7.22;3.92;;;;;;;;;;4988325;28;20068;-65
2023/03/21 15:08:54;;;;;;;8.52;4.28;;;;;;;;;;4963824;28;20054;-66